Merkelbeek, Netherlands
Current Conditions -  °F | °C
As of 2:55 AM on Monday 22 Dec 2014 (Local Time) from EHBK Reporting Station
Overcast Overcast  
Wind Chill: 38°   Ceiling: 1200
Heat Index: 46°   Visibility: 6mi
Dew Point: 43°   Wind: 24mph
Humidity: 87%   Direction: 230°SW
Pressure: 30.21"   Gusts: 36mph
Location:  50.95°N, 5.94°E
Report Text: EHBK 220155Z AUTO 23021G31KT 9999 OVC012 08/06 Q1023
Loading
Personal Weather Stations






























Interactive Weather Map New forecast layout! Learn more

10-Day Weather Forecast

Advertisements
Track Severe Weather on mobile